createdAt,value
2022-11-19T00:02:07.466Z,7.55
2022-11-19T00:04:36.857Z,7.60
2022-11-19T00:07:05.384Z,7.70
2022-11-19T00:09:33.364Z,7.72
2022-11-19T00:12:18.656Z,8.18
2022-11-19T00:14:46.670Z,7.47
2022-11-19T00:17:14.663Z,8.10
2022-11-19T00:19:44.030Z,7.60
2022-11-19T00:22:12.122Z,7.90
2022-11-19T00:24:40.314Z,7.65
2022-11-19T00:27:08.333Z,7.75
2022-11-19T00:29:36.308Z,8.38
2022-11-19T00:32:04.356Z,7.95
2022-11-19T00:34:32.398Z,7.80
2022-11-19T00:37:02.042Z,8.00
2022-11-19T00:39:30.214Z,7.82
2022-11-19T00:41:58.169Z,7.82
2022-11-19T00:44:26.192Z,7.85
2022-11-19T00:46:54.384Z,8.38
2022-11-19T00:49:22.383Z,7.45
2022-11-19T00:51:50.417Z,7.80
2022-11-19T00:54:19.879Z,8.23
2022-11-19T00:56:47.894Z,7.93
2022-11-19T00:59:16.178Z,7.70
2022-11-19T01:01:44.343Z,8.05
2022-11-19T01:04:12.465Z,7.75
2022-11-19T01:06:40.451Z,7.40
2022-11-19T01:09:10.040Z,7.85
2022-11-19T01:11:41.220Z,7.25
2022-11-19T01:14:09.679Z,7.20
2022-11-19T01:16:39.862Z,7.20
2022-11-19T01:19:10.765Z,7.10
2022-11-19T01:21:39.275Z,7.15
2022-11-19T01:24:07.850Z,6.72
2022-11-19T01:26:35.873Z,7.13
2022-11-19T01:29:05.293Z,6.93
2022-11-19T01:31:33.356Z,7.15
2022-11-19T01:34:01.537Z,6.68
2022-11-19T01:36:30.663Z,7.05
2022-11-19T01:38:59.343Z,6.90
2022-11-19T01:41:29.325Z,7.25
2022-11-19T01:43:59.716Z,7.45
2022-11-19T01:46:31.864Z,7.65
2022-11-19T01:49:03.632Z,7.32
2022-11-19T01:51:36.162Z,6.72
2022-11-19T01:54:10.439Z,6.85
2022-11-19T01:56:38.864Z,7.28
2022-11-19T01:59:12.172Z,7.28
2022-11-19T02:01:42.317Z,7.50
2022-11-19T02:04:12.059Z,8.23
2022-11-19T02:06:40.480Z,7.55
2022-11-19T02:09:08.353Z,7.22
2022-11-19T02:12:09.590Z,7.30
2022-11-19T02:14:54.571Z,7.50
2022-11-19T02:17:38.359Z,7.88
2022-11-19T02:20:40.847Z,7.75
2022-11-19T02:23:45.903Z,7.68
2022-11-19T02:26:55.367Z,7.15
2022-11-19T02:30:01.548Z,7.20
2022-11-19T02:32:34.148Z,7.75
2022-11-19T02:35:12.543Z,6.95
2022-11-19T02:37:45.509Z,7.45
2022-11-19T02:40:20.415Z,7.15
2022-11-19T02:42:54.256Z,7.65
2022-11-19T02:45:30.328Z,7.63
2022-11-19T02:48:02.323Z,7.50
2022-11-19T02:50:34.675Z,8.40
2022-11-19T02:53:04.696Z,7.28
2022-11-19T02:55:33.065Z,8.00
2022-11-19T02:58:05.848Z,7.75
2022-11-19T03:01:02.800Z,8.00
2022-11-19T03:03:49.706Z,7.63
2022-11-19T03:06:22.965Z,7.28
2022-11-19T03:08:51.536Z,7.28
2022-11-19T03:11:22.601Z,7.57
2022-11-19T03:14:14.252Z,7.90
2022-11-19T03:16:51.075Z,7.70
2022-11-19T03:19:32.795Z,7.45
2022-11-19T03:22:05.173Z,7.75
2022-11-19T03:24:36.527Z,7.65
2022-11-19T03:27:09.347Z,8.23
2022-11-19T03:29:42.845Z,7.18
2022-11-19T03:32:18.479Z,8.40
2022-11-19T03:34:49.607Z,7.85
2022-11-19T03:37:20.762Z,7.95
2022-11-19T03:39:50.531Z,7.65
2022-11-19T03:42:22.698Z,7.80
2022-11-19T03:44:55.673Z,7.93
2022-11-19T03:47:28.440Z,7.72
2022-11-19T03:50:00.803Z,8.38
2022-11-19T03:52:28.855Z,7.25
2022-11-19T03:54:56.853Z,7.88
2022-11-19T03:57:27.368Z,7.82
2022-11-19T03:59:55.342Z,8.10
2022-11-19T04:02:24.641Z,7.35
2022-11-19T04:04:52.540Z,7.93
2022-11-19T04:07:22.796Z,7.90
2022-11-19T04:09:51.211Z,7.40
2022-11-19T04:12:20.928Z,7.43
2022-11-19T04:14:49.519Z,8.15
2022-11-19T04:17:18.380Z,7.90
2022-11-19T04:19:49.076Z,7.85
2022-11-19T04:22:17.015Z,7.70
2022-11-19T04:24:44.928Z,7.88
2022-11-19T04:27:13.109Z,7.90
2022-11-19T04:29:41.022Z,7.70
2022-11-19T04:32:09.194Z,8.60
2022-11-19T04:34:37.172Z,7.93
2022-11-19T04:37:06.458Z,7.80
2022-11-19T04:39:34.445Z,7.78
2022-11-19T04:42:02.402Z,8.23
2022-11-19T04:44:30.656Z,7.70
2022-11-19T04:46:58.539Z,7.82
2022-11-19T04:49:26.516Z,8.02
2022-11-19T04:51:54.449Z,8.38
2022-11-19T04:54:23.719Z,8.27
2022-11-19T04:56:51.695Z,7.38
2022-11-19T04:59:19.876Z,7.88
2022-11-19T05:01:49.304Z,7.63
2022-11-19T05:04:17.226Z,8.10
2022-11-19T05:06:45.296Z,7.68
2022-11-19T05:09:13.341Z,7.55
2022-11-19T05:11:42.536Z,7.50
2022-11-19T05:14:10.662Z,7.70
2022-11-19T05:16:38.633Z,7.70
2022-11-19T05:19:06.671Z,7.70
2022-11-19T05:21:34.619Z,7.43
2022-11-19T05:24:02.591Z,7.50
2022-11-19T05:26:30.621Z,7.93
2022-11-19T05:28:59.951Z,7.35
2022-11-19T05:31:28.131Z,7.75
2022-11-19T05:33:56.057Z,7.72
2022-11-19T05:36:23.901Z,7.88
2022-11-19T05:38:51.829Z,7.07
2022-11-19T05:41:19.811Z,8.02
2022-11-19T05:43:47.694Z,6.93
2022-11-19T05:46:16.979Z,7.90
2022-11-19T05:48:44.971Z,7.50
2022-11-19T05:51:15.105Z,7.22
2022-11-19T05:53:43.286Z,7.72
2022-11-19T05:56:11.516Z,7.70
2022-11-19T05:58:39.370Z,7.57
2022-11-19T06:01:07.826Z,7.70
2022-11-19T06:03:38.187Z,6.82
2022-11-19T06:06:06.501Z,7.50
2022-11-19T06:08:34.541Z,7.97
2022-11-19T06:11:04.059Z,7.05
2022-11-19T06:13:31.931Z,7.35
2022-11-19T06:15:59.835Z,8.13
2022-11-19T06:18:27.753Z,7.80
2022-11-19T06:20:56.954Z,7.45
2022-11-19T06:23:24.908Z,7.43
2022-11-19T06:25:55.617Z,7.95
2022-11-19T06:28:23.548Z,7.30
2022-11-19T06:30:51.435Z,7.75
2022-11-19T06:33:19.339Z,8.02
2022-11-19T06:35:47.260Z,8.13
2022-11-19T06:38:17.894Z,7.68
2022-11-19T06:40:46.918Z,7.20
2022-11-19T06:43:15.139Z,7.45
2022-11-19T06:45:43.111Z,8.45
2022-11-19T06:48:11.340Z,8.38
2022-11-19T06:50:39.241Z,7.88
2022-11-19T06:53:07.357Z,7.72
2022-11-19T06:55:36.682Z,7.40
2022-11-19T06:58:05.250Z,7.38
2022-11-19T07:00:33.940Z,7.90
2022-11-19T07:03:02.148Z,7.57
2022-11-19T07:05:30.033Z,7.47
2022-11-19T07:08:02.859Z,8.23
2022-11-19T07:10:31.655Z,8.00
2022-11-19T07:13:00.932Z,8.20
2022-11-19T07:15:29.021Z,7.80
2022-11-19T07:17:56.912Z,7.68
2022-11-19T07:20:25.062Z,7.53
2022-11-19T07:22:58.752Z,7.82
2022-11-19T07:25:27.276Z,8.20
2022-11-19T07:27:55.221Z,8.23
2022-11-19T07:30:24.544Z,8.13
2022-11-19T07:32:54.606Z,8.00
2022-11-19T07:35:22.520Z,8.10
2022-11-19T07:37:50.519Z,7.93
2022-11-19T07:40:18.540Z,8.60
2022-11-19T07:42:51.467Z,8.52
2022-11-19T07:45:20.693Z,8.48
2022-11-19T07:47:50.533Z,7.97
2022-11-19T07:50:18.909Z,8.23
2022-11-19T07:52:46.812Z,7.90
2022-11-19T07:55:15.673Z,8.43
2022-11-19T07:57:43.805Z,8.55
2022-11-19T08:00:12.881Z,7.93
2022-11-19T08:02:40.995Z,8.68
2022-11-19T08:05:10.863Z,8.25
2022-11-19T08:07:39.194Z,9.30
2022-11-19T08:10:08.310Z,8.40
2022-11-19T08:12:36.207Z,8.40
2022-11-19T08:15:04.184Z,8.90
2022-11-19T08:17:49.785Z,8.73
2022-11-19T08:20:19.350Z,9.32
2022-11-19T08:22:47.496Z,9.07
2022-11-19T08:25:15.596Z,8.93
2022-11-19T08:27:43.512Z,8.85
2022-11-19T08:30:11.907Z,9.05
2022-11-19T08:32:39.807Z,9.60
2022-11-19T08:35:09.774Z,8.90
2022-11-19T08:37:39.049Z,8.68
2022-11-19T08:40:08.202Z,9.10
2022-11-19T08:42:58.842Z,8.70
2022-11-19T08:45:28.098Z,8.90
2022-11-19T08:47:56.510Z,8.52
2022-11-19T08:50:25.744Z,9.38
2022-11-19T08:53:00.547Z,9.00
2022-11-19T08:55:30.861Z,8.93
2022-11-19T08:58:02.963Z,8.73
2022-11-19T09:00:32.402Z,8.15
2022-11-19T09:03:00.325Z,8.50
2022-11-19T09:05:28.747Z,8.60
2022-11-19T09:07:58.406Z,9.80
2022-11-19T09:10:27.676Z,9.07
2022-11-19T09:12:55.786Z,9.63
2022-11-19T09:15:24.351Z,9.70
2022-11-19T09:17:52.783Z,9.10
2022-11-19T09:20:20.807Z,9.87
2022-11-19T09:22:48.741Z,9.60
2022-11-19T09:25:18.109Z,9.83
2022-11-19T09:27:45.963Z,8.73
2022-11-19T09:30:16.048Z,9.60
2022-11-19T09:32:45.324Z,10.30
2022-11-19T09:35:13.864Z,10.03
2022-11-19T09:37:42.012Z,10.68
2022-11-19T09:40:17.021Z,9.40
2022-11-19T09:42:54.434Z,8.73
2022-11-19T09:45:27.582Z,9.63
2022-11-19T09:48:12.074Z,8.80
2022-11-19T09:50:53.235Z,9.40
2022-11-19T09:53:23.805Z,9.73
2022-11-19T09:55:54.615Z,9.57
2022-11-19T09:58:28.093Z,8.67
2022-11-19T10:00:56.161Z,8.53
2022-11-19T10:03:32.913Z,8.93
2022-11-19T10:06:19.481Z,8.70
2022-11-19T10:09:02.911Z,8.88
2022-11-19T10:11:44.887Z,8.75
2022-11-19T10:14:30.257Z,8.27
2022-11-19T10:17:04.890Z,8.63
2022-11-19T10:19:44.336Z,9.10
2022-11-19T10:22:20.439Z,8.03
2022-11-19T10:24:58.963Z,8.35
2022-11-19T10:27:33.120Z,8.55
2022-11-19T10:30:08.354Z,7.80
2022-11-19T10:32:42.089Z,8.45
2022-11-19T10:35:17.490Z,7.88
2022-11-19T10:37:54.504Z,8.05
2022-11-19T10:40:24.614Z,8.02
2022-11-19T10:42:56.825Z,7.97
2022-11-19T10:45:27.658Z,7.97
2022-11-19T10:48:09.218Z,7.82
2022-11-19T10:50:39.354Z,7.60
2022-11-19T10:53:14.935Z,8.52
2022-11-19T10:55:48.835Z,7.97
2022-11-19T10:58:25.612Z,8.05
2022-11-19T11:00:57.226Z,7.47
2022-11-19T11:03:37.683Z,7.32
2022-11-19T11:06:09.898Z,7.00
2022-11-19T11:08:49.464Z,7.63
2022-11-19T11:11:25.454Z,7.65
2022-11-19T11:14:11.171Z,7.63
2022-11-19T11:16:45.808Z,7.70
2022-11-19T11:19:18.290Z,7.32
2022-11-19T11:21:47.823Z,7.38
2022-11-19T11:24:16.629Z,7.43
2022-11-19T11:26:44.652Z,8.18
2022-11-19T11:29:27.085Z,6.78
2022-11-19T11:31:56.476Z,6.82
2022-11-19T11:34:44.269Z,8.15
2022-11-19T11:37:17.381Z,6.97
2022-11-19T11:39:52.069Z,6.93
2022-11-19T11:42:24.024Z,6.80
2022-11-19T11:44:53.895Z,6.50
2022-11-19T11:47:26.190Z,6.60
2022-11-19T11:50:05.713Z,6.45
2022-11-19T11:52:40.777Z,6.45
2022-11-19T11:55:14.651Z,6.45
2022-11-19T11:57:53.214Z,6.07
2022-11-19T12:00:32.541Z,6.60
2022-11-19T12:03:04.278Z,6.40
2022-11-19T12:05:45.728Z,6.43
2022-11-19T12:08:27.156Z,6.25
2022-11-19T12:11:03.791Z,6.40
2022-11-19T12:13:57.139Z,6.32
2022-11-19T12:16:45.191Z,6.55
2022-11-19T12:19:36.213Z,6.00
2022-11-19T12:22:12.488Z,6.10
2022-11-19T12:24:53.474Z,6.50
2022-11-19T12:27:29.849Z,6.25
2022-11-19T12:30:05.221Z,6.28
2022-11-19T12:32:52.748Z,5.75
2022-11-19T12:35:49.547Z,5.53
2022-11-19T12:38:30.233Z,6.10
2022-11-19T12:41:14.618Z,6.18
2022-11-19T12:43:56.800Z,5.72
2022-11-19T12:46:42.396Z,6.05
2022-11-19T12:49:36.252Z,5.60
2022-11-19T12:52:14.363Z,6.07
2022-11-19T12:54:52.431Z,6.05
2022-11-19T12:57:40.120Z,5.43
2022-11-19T13:00:15.183Z,5.35
2022-11-19T13:02:54.720Z,5.43
2022-11-19T13:05:28.847Z,5.72
2022-11-19T13:08:02.744Z,5.47
2022-11-19T13:10:35.448Z,5.22
2022-11-19T13:13:05.193Z,5.40
2022-11-19T13:15:36.691Z,5.00
2022-11-19T13:18:12.604Z,5.25
2022-11-19T13:20:50.615Z,5.13
2022-11-19T13:23:25.232Z,5.03
2022-11-19T13:25:58.852Z,5.38
2022-11-19T13:28:33.727Z,5.32
2022-11-19T13:31:08.421Z,4.90
2022-11-19T13:33:44.599Z,5.10
2022-11-19T13:36:19.655Z,4.90
2022-11-19T13:38:54.225Z,4.95
2022-11-19T13:41:26.483Z,5.03
2022-11-19T13:44:14.791Z,4.82
2022-11-19T13:46:46.227Z,4.60
2022-11-19T13:49:19.849Z,4.40
2022-11-19T13:51:50.997Z,4.80
2022-11-19T13:54:26.251Z,5.00
2022-11-19T13:56:59.171Z,4.60
2022-11-19T13:59:32.627Z,4.68
2022-11-19T14:02:13.635Z,4.85
2022-11-19T14:05:11.104Z,4.90
2022-11-19T14:07:53.980Z,4.35
2022-11-19T14:10:27.221Z,4.40
2022-11-19T14:13:08.092Z,4.50
2022-11-19T14:16:21.229Z,4.50
2022-11-19T14:19:11.067Z,4.30
2022-11-19T14:22:07.718Z,4.60
2022-11-19T14:25:13.080Z,5.70
2022-11-19T14:27:42.953Z,4.72
2022-11-19T14:30:19.169Z,4.90
2022-11-19T14:32:50.534Z,5.47
2022-11-19T14:35:42.341Z,5.43
2022-11-19T14:38:42.816Z,5.32
2022-11-19T14:41:30.674Z,4.68
2022-11-19T14:44:14.043Z,4.65
2022-11-19T14:46:44.739Z,5.00
2022-11-19T14:49:24.670Z,4.75
2022-11-19T14:51:55.712Z,5.10
2022-11-19T14:54:32.082Z,4.43
2022-11-19T14:57:24.532Z,4.75
2022-11-19T14:59:56.279Z,4.88
2022-11-19T15:02:29.083Z,5.22
2022-11-19T15:05:02.411Z,5.68
2022-11-19T15:07:40.936Z,5.30
2022-11-19T15:10:28.943Z,4.63
2022-11-19T15:13:21.514Z,4.65
2022-11-19T15:16:04.233Z,5.05
2022-11-19T15:19:12.681Z,4.68
2022-11-19T15:22:25.682Z,5.03
2022-11-19T15:25:26.479Z,5.15
2022-11-19T15:28:19.986Z,4.90
2022-11-19T15:31:18.702Z,4.53
2022-11-19T15:34:10.637Z,4.97
2022-11-19T15:36:42.670Z,4.93
2022-11-19T15:39:35.246Z,5.18
2022-11-19T15:42:18.093Z,5.13
2022-11-19T15:44:57.059Z,5.18
2022-11-19T15:50:32.253Z,5.15
2022-11-19T15:53:07.289Z,5.05
2022-11-19T15:55:45.658Z,5.20
2022-11-19T15:58:18.938Z,6.05
2022-11-19T16:00:54.659Z,5.80
2022-11-19T16:03:26.268Z,5.57
2022-11-19T16:06:03.701Z,5.80
2022-11-19T16:08:32.522Z,5.28
2022-11-19T16:11:23.803Z,6.07
2022-11-19T16:14:06.891Z,5.65
2022-11-19T16:16:54.857Z,6.30
2022-11-19T16:19:29.940Z,6.38
2022-11-19T16:22:02.030Z,6.20
2022-11-19T16:24:55.543Z,6.68
2022-11-19T16:27:27.170Z,6.38
2022-11-19T16:29:57.407Z,6.80
2022-11-19T16:32:29.915Z,6.18
2022-11-19T16:35:15.541Z,6.47
2022-11-19T16:37:46.870Z,6.75
2022-11-19T16:40:19.556Z,6.47
2022-11-19T16:42:53.499Z,6.20
2022-11-19T16:45:29.817Z,7.07
2022-11-19T16:48:02.827Z,6.88
2022-11-19T16:50:35.425Z,7.00
2022-11-19T16:53:06.380Z,7.10
2022-11-19T16:55:53.673Z,7.78
2022-11-19T16:58:26.545Z,7.75
2022-11-19T17:00:59.692Z,7.68
2022-11-19T17:03:36.376Z,7.25
2022-11-19T17:06:07.648Z,7.20
2022-11-19T17:08:46.875Z,7.45
2022-11-19T17:11:38.272Z,7.78
2022-11-19T17:14:22.889Z,8.38
2022-11-19T17:16:54.462Z,7.53
2022-11-19T17:19:32.272Z,7.70
2022-11-19T17:22:18.306Z,7.75
2022-11-19T17:24:52.646Z,8.10
2022-11-19T17:27:29.236Z,7.95
2022-11-19T17:30:02.245Z,8.43
2022-11-19T17:32:40.181Z,8.52
2022-11-19T17:35:13.139Z,8.30
2022-11-19T17:37:43.207Z,9.00
2022-11-19T17:40:14.062Z,8.20
2022-11-19T17:42:59.745Z,8.55
2022-11-19T17:45:27.848Z,8.57
2022-11-19T17:47:56.004Z,8.43
2022-11-19T17:50:24.190Z,9.45
2022-11-19T17:52:53.827Z,8.85
2022-11-19T17:55:23.596Z,9.18
2022-11-19T17:57:51.684Z,8.75
2022-11-19T18:00:19.993Z,8.93
2022-11-19T18:02:49.150Z,8.68
2022-11-19T18:05:23.245Z,8.63
2022-11-19T18:07:55.103Z,8.27
2022-11-19T18:10:23.760Z,8.55
2022-11-19T18:12:52.196Z,8.98
2022-11-19T18:15:22.040Z,8.70
2022-11-19T18:17:50.264Z,8.18
2022-11-19T18:20:19.777Z,8.57
2022-11-19T18:22:50.097Z,8.95
2022-11-19T18:28:48.999Z,8.77
2022-11-19T18:31:23.013Z,9.57
2022-11-19T18:33:55.378Z,9.30
2022-11-19T18:36:29.120Z,8.88
2022-11-19T18:38:59.896Z,9.70
2022-11-19T18:41:37.790Z,9.85
2022-11-19T18:44:24.779Z,10.43
2022-11-19T18:46:55.873Z,9.55
2022-11-19T18:49:29.390Z,10.07
2022-11-19T18:52:03.529Z,9.82
2022-11-19T18:54:33.515Z,9.85
2022-11-19T18:57:08.553Z,11.10
2022-11-19T18:59:44.092Z,10.55
2022-11-19T19:02:15.677Z,10.63
2022-11-19T19:04:51.107Z,11.35
2022-11-19T19:07:30.991Z,10.65
2022-11-19T19:10:03.954Z,10.57
2022-11-19T19:12:33.059Z,10.10
2022-11-19T19:15:06.430Z,10.63
2022-11-19T19:17:38.617Z,10.98
2022-11-19T19:20:07.928Z,10.68
2022-11-19T19:22:43.587Z,11.18
2022-11-19T19:25:23.767Z,11.57
2022-11-19T19:27:58.838Z,10.60
2022-11-19T19:30:30.505Z,11.32
2022-11-19T19:32:58.879Z,11.55
2022-11-19T19:35:29.396Z,10.15
2022-11-19T19:37:57.531Z,10.90
2022-11-19T19:40:25.905Z,10.70
2022-11-19T19:43:06.034Z,10.52
2022-11-19T19:45:35.653Z,10.75
2022-11-19T19:48:05.908Z,10.73
2022-11-19T19:50:34.316Z,10.93
2022-11-19T19:53:05.633Z,11.02
2022-11-19T19:55:39.084Z,10.60
2022-11-19T19:58:08.893Z,10.07
2022-11-19T20:00:45.735Z,11.25
2022-11-19T20:03:21.679Z,10.20
2022-11-19T20:05:52.466Z,9.48
2022-11-19T20:08:34.019Z,10.52
2022-11-19T20:11:05.533Z,9.88
2022-11-19T20:13:39.777Z,10.13
2022-11-19T20:16:24.950Z,10.93
2022-11-19T20:18:56.986Z,11.32
2022-11-19T20:21:38.119Z,10.30
2022-11-19T20:24:12.108Z,10.75
2022-11-19T20:26:49.396Z,10.60
2022-11-19T20:29:24.243Z,10.95
2022-11-19T20:31:52.859Z,10.95
2022-11-19T20:34:24.249Z,10.90
2022-11-19T20:36:54.595Z,11.27
2022-11-19T20:39:24.171Z,10.43
2022-11-19T20:42:09.913Z,10.65
2022-11-19T20:44:49.960Z,10.70
2022-11-19T20:47:26.087Z,10.73
2022-11-19T20:56:17.762Z,10.73
2022-11-19T20:58:45.791Z,10.65
2022-11-19T21:01:16.962Z,10.95
2022-11-19T21:03:45.210Z,10.60
2022-11-19T21:06:13.498Z,11.45
2022-11-19T21:08:41.528Z,10.93
2022-11-19T21:11:17.578Z,10.02
2022-11-19T21:13:46.064Z,11.10
2022-11-19T21:16:17.053Z,10.45
2022-11-19T21:18:45.140Z,11.10
2022-11-19T21:21:15.098Z,11.90
2022-11-19T21:23:46.048Z,11.80
2022-11-19T21:26:16.763Z,11.65
2022-11-19T21:28:46.846Z,12.07
2022-11-19T21:31:17.599Z,10.95
2022-11-19T21:33:45.903Z,11.10
2022-11-19T21:36:14.318Z,11.32
2022-11-19T21:38:42.336Z,11.18
2022-11-19T21:41:10.390Z,11.27
2022-11-19T21:43:38.536Z,11.63
2022-11-19T21:46:08.409Z,11.77
2022-11-19T21:48:39.944Z,11.90
2022-11-19T21:51:08.893Z,12.00
2022-11-19T21:53:37.106Z,11.15
2022-11-19T21:56:05.948Z,11.55
2022-11-19T21:58:33.898Z,11.05
2022-11-19T22:01:04.115Z,12.05
2022-11-19T22:03:33.291Z,11.57
2022-11-19T22:06:04.514Z,11.27
2022-11-19T22:08:34.131Z,11.77
2022-11-19T22:11:22.497Z,11.75
2022-11-19T22:13:50.425Z,11.40
2022-11-19T22:16:18.466Z,11.63
2022-11-19T22:18:46.368Z,11.20
2022-11-19T22:21:15.893Z,11.10
2022-11-19T22:23:44.121Z,12.15
2022-11-19T22:26:13.234Z,11.80
2022-11-19T22:28:41.462Z,11.50
2022-11-19T22:31:09.369Z,11.25
2022-11-19T22:33:39.359Z,12.85
2022-11-19T22:36:10.496Z,12.05
2022-11-19T22:38:40.436Z,12.27
2022-11-19T22:41:12.564Z,11.50
2022-11-19T22:43:41.586Z,12.10
2022-11-19T22:46:11.535Z,12.10
2022-11-19T22:48:40.355Z,11.77
2022-11-19T22:51:09.661Z,12.18
2022-11-19T22:53:39.647Z,12.63
2022-11-19T22:56:09.705Z,12.93
2022-11-19T22:58:38.686Z,13.30
2022-11-19T23:01:08.363Z,13.27
2022-11-19T23:03:36.281Z,12.68
2022-11-19T23:06:04.312Z,12.70
2022-11-19T23:08:32.277Z,12.65
2022-11-19T23:11:03.270Z,12.43
2022-11-19T23:13:32.655Z,11.77
2022-11-19T23:16:06.764Z,12.98
2022-11-19T23:18:36.774Z,12.40
2022-11-19T23:21:06.812Z,12.65
2022-11-19T23:23:35.175Z,11.55
2022-11-19T23:26:06.541Z,12.63
2022-11-19T23:28:36.534Z,12.05
2022-11-19T23:31:05.302Z,11.43
2022-11-19T23:33:33.194Z,11.57
2022-11-19T23:36:06.166Z,12.15
2022-11-19T23:38:35.617Z,11.57
2022-11-19T23:41:06.287Z,12.02
2022-11-19T23:43:35.039Z,11.38
2022-11-19T23:46:07.401Z,11.40
2022-11-19T23:48:36.237Z,10.98
2022-11-19T23:51:05.278Z,11.40
2022-11-19T23:53:33.186Z,10.93
2022-11-19T23:56:01.609Z,11.00
2022-11-19T23:58:31.088Z,11.35
